Hume, Missouri
Current Conditions -  °F | °C
As of 8:35 AM on Thursday 23 Oct 2014 (Local Time) from KPTS Reporting Station
Light Rain Light Rain  
Wind Chill: 58°   Ceiling: 7000
Heat Index: 58°   Visibility: 5mi
Dew Point: 58°   Wind: 5mph
Humidity: 100%   Direction: 180°S
Pressure: 30.15"   Gusts: NA
Location:  38.09°N, 94.58°W
Report Text: KPTS 231335Z AUTO 18004KT 5SM -RA SCT060 OVC070 15/15 A3015 RMK AO2 P0001 T01470147
Loading
Personal Weather Stations






























Interactive Weather Map
Tropical Storm Tracking
New forecast layout! Learn more

10-Day Weather Forecast

Advertisements
Track Severe Weather on mobile